Time;durP1;ratioP1;P1;durP2;ratioP2;P2;SDS_P1;SDS_P2;PMS_P1;PMS_P2;Temp;Humidity;BMP_temperature;BMP_pressure;BME280_temperature;BME280_humidity;BME280_pressure;Samples;Min_cycle;Max_cycle;Signal;HPM_P1;HPM_P2
2023/04/27 00:01:42;;;;;;;2.58;1.42;;;;;;;20.17;48.38;101022.41;5053728;28;20458;-55
2023/04/27 00:04:09;;;;;;;4.78;1.38;;;;;;;20.17;48.38;101016.16;5053708;28;20056;-54
2023/04/27 00:06:37;;;;;;;2.55;1.40;;;;;;;20.16;48.26;101018.00;5053507;28;20521;-54
2023/04/27 00:09:05;;;;;;;4.35;2.00;;;;;;;20.17;48.26;101013.47;5053562;28;20057;-57
2023/04/27 00:11:33;;;;;;;2.72;1.50;;;;;;;20.16;48.34;101018.00;5053969;28;20483;-54
2023/04/27 00:14:00;;;;;;;5.22;1.55;;;;;;;20.16;48.37;101022.53;5053366;28;20064;-55
2023/04/27 00:16:27;;;;;;;3.35;1.83;;;;;;;20.16;48.32;101018.00;5053647;28;20037;-54
2023/04/27 00:18:55;;;;;;;3.78;1.60;;;;;;;20.16;48.16;101012.63;5053615;28;20387;-55
2023/04/27 00:21:22;;;;;;;3.25;1.63;;;;;;;20.16;48.37;101018.00;5053676;28;20045;-57
2023/04/27 00:23:49;;;;;;;2.67;1.63;;;;;;;20.15;48.29;101008.25;5053788;28;20049;-57
2023/04/27 00:26:17;;;;;;;2.35;1.30;;;;;;;20.15;48.24;101004.72;5053362;28;20064;-57
2023/04/27 00:28:47;;;;;;;3.28;1.88;;;;;;;20.15;48.36;100996.66;5053514;28;20037;-57
2023/04/27 00:31:15;;;;;;;7.03;2.03;;;;;;;20.15;48.40;100999.34;5052003;28;20072;-57
2023/04/27 00:33:42;;;;;;;3.38;1.30;;;;;;;20.15;48.29;100999.34;5053347;28;20041;-57
2023/04/27 00:36:09;;;;;;;2.67;1.40;;;;;;;20.14;48.37;100998.50;5053302;28;20490;-57
2023/04/27 00:38:37;;;;;;;4.03;1.80;;;;;;;20.14;48.33;100998.50;5052380;28;20056;-57
2023/04/27 00:41:06;;;;;;;3.20;1.73;;;;;;;20.14;48.40;100993.13;5052192;28;20057;-57
2023/04/27 00:43:44;;;;;;;2.63;1.50;;;;;;;20.14;48.32;101001.19;5052932;28;20045;-57
2023/04/27 00:46:12;;;;;;;2.85;1.20;;;;;;;20.14;48.38;101003.88;5053035;28;20522;-57
2023/04/27 00:48:40;;;;;;;3.03;1.88;;;;;;;20.13;48.31;101002.16;5052350;28;20053;-57
2023/04/27 00:51:09;;;;;;;4.65;1.70;;;;;;;20.14;48.45;101003.03;5053157;28;20049;-55
2023/04/27 00:53:36;;;;;;;3.00;1.60;;;;;;;20.14;48.22;101003.03;5053145;28;20045;-55
2023/04/27 00:56:05;;;;;;;3.40;1.70;;;;;;;20.13;48.36;100999.44;5051565;28;20053;-55
2023/04/27 00:58:33;;;;;;;5.63;1.73;;;;;;;20.12;48.39;101015.72;5053098;28;20045;-54
2023/04/27 01:01:00;;;;;;;2.90;1.55;;;;;;;20.13;48.31;101009.34;5053090;28;20045;-55
2023/04/27 01:03:30;;;;;;;3.03;1.95;;;;;;;20.12;48.24;101005.81;5053728;28;20522;-55
2023/04/27 01:06:00;;;;;;;3.85;1.65;;;;;;;20.12;48.37;101010.34;5052782;28;20045;-55
2023/04/27 01:08:28;;;;;;;4.13;1.65;;;;;;;20.12;48.32;101015.72;5052554;28;20407;-55
2023/04/27 01:10:56;;;;;;;2.42;1.42;;;;;;;20.13;48.30;101020.09;5052874;28;20052;-55
2023/04/27 01:13:23;;;;;;;3.03;1.58;;;;;;;20.12;48.40;101021.94;5052897;28;20079;-54
2023/04/27 01:15:50;;;;;;;2.20;1.45;;;;;;;20.12;48.47;101026.47;5051554;28;20056;-55
2023/04/27 01:18:18;;;;;;;4.47;1.83;;;;;;;20.11;48.28;101025.63;5052787;28;20045;-52
2023/04/27 01:20:45;;;;;;;2.70;1.30;;;;;;;20.12;48.41;101019.25;5053111;28;20049;-55
2023/04/27 01:23:14;;;;;;;4.35;1.80;;;;;;;20.12;48.40;101026.47;5052884;28;20049;-55
2023/04/27 01:25:43;;;;;;;2.45;1.48;;;;;;;20.12;48.36;101027.31;5052996;28;20049;-55
2023/04/27 01:28:11;;;;;;;2.42;1.20;;;;;;;20.11;48.37;101031.00;5056578;28;20060;-54
2023/04/27 01:30:38;;;;;;;3.10;1.70;;;;;;;20.11;48.31;101025.63;5055282;28;20422;-54
2023/04/27 01:33:06;;;;;;;3.28;1.50;;;;;;;20.11;48.36;101038.22;5056322;28;20509;-55
2023/04/27 01:35:33;;;;;;;4.32;1.77;;;;;;;20.12;48.27;101030.00;5056216;28;20055;-53
2023/04/27 01:38:01;;;;;;;3.00;1.58;;;;;;;20.10;48.16;101023.94;5056205;28;20045;-55
2023/04/27 01:40:28;;;;;;;2.53;1.60;;;;;;;20.09;48.06;101030.25;5056329;28;20056;-57
2023/04/27 01:42:56;;;;;;;3.80;2.10;;;;;;;20.10;48.39;101039.22;5056181;28;20049;-57
2023/04/27 01:45:23;;;;;;;2.90;1.92;;;;;;;20.09;48.19;101030.25;5054862;28;20053;-57
2023/04/27 01:47:51;;;;;;;5.60;1.80;;;;;;;20.10;48.27;101045.44;5054327;28;20053;-57
2023/04/27 01:50:20;;;;;;;4.68;1.52;;;;;;;20.10;48.19;101039.22;5055148;28;20055;-54
2023/04/27 01:52:47;;;;;;;3.08;1.80;;;;;;;20.09;48.07;101038.34;5055040;28;20513;-53
2023/04/27 01:55:14;;;;;;;4.93;1.67;;;;;;;20.09;48.05;101034.78;5056073;28;20056;-54
2023/04/27 01:57:42;;;;;;;3.53;1.70;;;;;;;20.09;48.10;101037.47;5054143;28;20056;-55
2023/04/27 02:00:11;;;;;;;2.35;1.30;;;;;;;20.09;48.01;101046.41;5054789;28;20064;-54
2023/04/27 02:02:49;;;;;;;2.85;1.45;;;;;;;20.09;48.04;101048.22;5062544;28;20045;-53
2023/04/27 02:05:18;;;;;;;3.17;1.33;;;;;;;20.09;47.98;101048.22;5055988;28;20408;-54
2023/04/27 02:07:46;;;;;;;2.83;1.50;;;;;;;20.08;48.25;101050.06;5054811;28;20049;-54
2023/04/27 02:10:13;;;;;;;2.20;1.23;;;;;;;20.08;48.05;101058.13;5055761;28;20045;-57
2023/04/27 02:12:40;;;;;;;4.63;2.00;;;;;;;20.08;48.01;101055.44;5053936;28;20136;-57
2023/04/27 02:15:08;;;;;;;2.63;1.30;;;;;;;20.08;48.03;101054.59;5054536;28;20057;-57
2023/04/27 02:17:37;;;;;;;4.20;1.70;;;;;;;20.08;48.10;101054.59;5053647;28;20056;-57
2023/04/27 02:20:05;;;;;;;2.90;1.40;;;;;;;20.06;47.96;101060.13;5055514;28;20048;-54
2023/04/27 02:22:33;;;;;;;2.95;1.40;;;;;;;20.07;48.03;101060.97;5055453;28;20387;-55
2023/04/27 02:25:01;;;;;;;3.75;1.73;;;;;;;20.07;48.02;101060.97;5054195;28;20049;-55
2023/04/27 02:27:28;;;;;;;2.90;1.45;;;;;;;20.07;47.95;101063.66;5054278;28;20049;-55
2023/04/27 02:29:57;;;;;;;2.72;1.48;;;;;;;20.05;47.96;101055.69;5053922;28;20052;-57
2023/04/27 02:32:25;;;;;;;3.38;1.50;;;;;;;20.06;48.06;101061.97;5053839;28;20053;-57
2023/04/27 02:34:54;;;;;;;2.92;1.88;;;;;;;20.06;48.25;101067.34;5053792;28;20514;-57
2023/04/27 02:37:21;;;;;;;2.15;1.40;;;;;;;20.06;48.27;101062.81;5053646;28;20044;-57
2023/04/27 02:39:49;;;;;;;4.32;2.03;;;;;;;20.05;48.06;101069.16;5054911;28;20041;-55
2023/04/27 02:42:16;;;;;;;3.72;1.77;;;;;;;20.05;48.24;101071.81;5054854;28;20048;-56
2023/04/27 02:44:43;;;;;;;4.00;1.48;;;;;;;20.04;48.30;101078.19;5054968;28;20053;-54
2023/04/27 02:47:11;;;;;;;3.47;1.75;;;;;;;20.06;48.23;101086.16;5053758;28;20414;-55
2023/04/27 02:49:38;;;;;;;3.28;1.45;;;;;;;20.04;48.35;101083.56;5053626;28;20056;-55
2023/04/27 02:52:06;;;;;;;3.53;1.30;;;;;;;20.04;48.25;101088.94;5054931;28;20045;-55
2023/04/27 02:54:34;;;;;;;2.80;1.50;;;;;;;20.04;48.26;101094.31;5053507;28;20057;-55
2023/04/27 02:57:01;;;;;;;4.07;2.00;;;;;;;20.03;48.15;101095.31;5052975;28;20068;-55
2023/04/27 02:59:28;;;;;;;5.85;1.52;;;;;;;20.04;48.29;101094.31;5054626;28;20052;-55
2023/04/27 03:01:56;;;;;;;3.15;1.63;;;;;;;20.04;48.27;101101.53;5052920;28;20418;-55
2023/04/27 03:04:23;;;;;;;4.28;1.70;;;;;;;20.03;48.33;101095.31;5054657;28;20482;-54
2023/04/27 03:06:50;;;;;;;3.55;2.08;;;;;;;20.03;48.24;101097.16;5055421;28;20060;-55
2023/04/27 03:09:18;;;;;;;2.47;1.55;;;;;;;20.03;48.33;101098.00;5053674;28;20056;-55
2023/04/27 03:11:45;;;;;;;2.17;1.20;;;;;;;20.03;48.23;101099.84;5053466;28;20053;-55
2023/04/27 03:14:13;;;;;;;2.42;1.23;;;;;;;20.02;48.35;101101.69;5053263;28;20068;-55
2023/04/27 03:16:40;;;;;;;2.55;1.45;;;;;;;20.02;48.19;101104.38;5054151;28;20518;-54
2023/04/27 03:19:07;;;;;;;3.55;1.70;;;;;;;20.02;48.29;101100.81;5053939;28;20044;-57
2023/04/27 03:21:35;;;;;;;4.50;1.70;;;;;;;20.01;48.27;101110.69;5054296;28;20045;-57
2023/04/27 03:24:02;;;;;;;3.33;1.40;;;;;;;20.02;48.30;101107.06;5054229;28;20049;-57
2023/04/27 03:26:30;;;;;;;2.58;1.23;;;;;;;20.01;48.25;101110.69;5054204;28;20463;-57
2023/04/27 03:28:58;;;;;;;3.05;1.73;;;;;;;20.01;48.19;101110.69;5053874;28;20056;-56
2023/04/27 03:31:27;;;;;;;2.38;1.45;;;;;;;20.00;48.12;101109.00;5052695;28;20064;-57
2023/04/27 03:33:55;;;;;;;2.72;1.52;;;;;;;20.01;48.02;101116.06;5052869;28;20052;-57
2023/04/27 03:36:23;;;;;;;2.85;1.45;;;;;;;20.02;48.27;101125.00;5052983;28;20052;-57
2023/04/27 03:38:50;;;;;;;3.97;1.40;;;;;;;20.01;48.16;101126.81;5052902;28;20048;-57
2023/04/27 03:41:18;;;;;;;2.60;1.48;;;;;;;20.00;48.43;101125.13;5052720;28;20053;-57
2023/04/27 03:43:46;;;;;;;2.70;1.52;;;;;;;20.00;48.26;101133.19;5053792;28;20410;-57
2023/04/27 03:46:13;;;;;;;2.90;1.85;;;;;;;20.00;48.51;101135.88;5052858;28;20057;-57
2023/04/27 03:48:42;;;;;;;2.75;1.60;;;;;;;20.00;48.36;101139.41;5052121;28;20045;-57
2023/04/27 03:51:10;;;;;;;2.53;1.30;;;;;;;20.01;48.53;101129.50;5052467;28;20063;-55
2023/04/27 03:53:37;;;;;;;2.50;1.40;;;;;;;20.00;48.63;101138.56;5052634;28;20419;-54
2023/04/27 03:56:06;;;;;;;4.18;1.40;;;;;;;20.01;48.49;101142.94;5052671;28;20415;-55
2023/04/27 03:58:34;;;;;;;2.45;1.30;;;;;;;19.99;48.39;101139.56;5052332;28;20053;-55
2023/04/27 04:01:17;;;;;;;2.65;1.40;;;;;;;19.99;48.37;101140.41;5052360;28;20052;-57
2023/04/27 04:03:46;;;;;;;3.10;1.42;;;;;;;19.99;48.41;101152.97;5052531;28;20048;-57
2023/04/27 04:06:14;;;;;;;2.60;1.42;;;;;;;19.98;48.43;101146.75;5052876;28;20053;-57
2023/04/27 04:08:41;;;;;;;2.28;1.30;;;;;;;19.98;48.44;101146.75;5052663;28;20064;-57
2023/04/27 04:11:09;;;;;;;3.42;1.90;;;;;;;19.98;48.55;101149.44;5051963;28;20487;-55
2023/04/27 04:13:36;;;;;;;2.30;1.20;;;;;;;19.99;48.60;101158.34;5051937;28;20048;-55
2023/04/27 04:16:06;;;;;;;2.72;1.40;;;;;;;19.99;48.65;101152.97;5052041;28;20414;-55
2023/04/27 04:18:35;;;;;;;4.00;1.75;;;;;;;19.99;48.90;101155.69;5052334;28;20064;-55
2023/04/27 04:21:03;;;;;;;3.80;1.85;;;;;;;19.98;48.86;101160.19;5052562;28;20410;-54
2023/04/27 04:23:31;;;;;;;3.78;1.70;;;;;;;19.98;48.67;101157.50;5052295;28;20048;-55
2023/04/27 04:26:00;;;;;;;4.30;1.80;;;;;;;19.98;48.75;101154.81;5053326;28;20053;-55
2023/04/27 04:28:32;;;;;;;3.47;1.83;;;;;;;19.98;48.62;101159.34;5052250;28;20491;-55
2023/04/27 04:31:00;;;;;;;4.57;1.90;;;;;;;19.97;48.61;101163.88;5053433;28;20052;-55
2023/04/27 04:33:27;;;;;;;3.00;1.50;;;;;;;19.97;48.68;101160.31;5052314;28;20057;-55
2023/04/27 04:35:55;;;;;;;3.15;1.88;;;;;;;19.97;48.54;101163.00;5053268;28;20045;-56
2023/04/27 04:38:22;;;;;;;2.90;1.40;;;;;;;19.96;48.68;101155.91;5051872;28;20048;-55
2023/04/27 04:40:51;;;;;;;3.33;1.65;;;;;;;19.97;48.68;101168.38;5052240;28;20056;-57
2023/04/27 04:43:20;;;;;;;2.42;1.38;;;;;;;19.97;48.82;101173.75;5053127;28;20052;-57
2023/04/27 04:45:47;;;;;;;2.67;1.67;;;;;;;19.96;48.70;101167.53;5052432;28;20060;-57
2023/04/27 04:48:15;;;;;;;4.38;1.40;;;;;;;19.97;48.61;101171.06;5051387;28;20048;-57
2023/04/27 04:50:45;;;;;;;2.55;1.40;;;;;;;19.96;48.64;101172.91;5052102;28;20053;-55
2023/04/27 04:53:12;;;;;;;2.85;1.42;;;;;;;19.95;48.70;101176.56;5051754;28;20049;-55
2023/04/27 04:55:41;;;;;;;3.70;1.88;;;;;;;19.95;48.61;101179.25;5051473;28;20064;-55
2023/04/27 04:58:09;;;;;;;3.72;1.60;;;;;;;19.96;48.55;101185.47;5052107;28;20057;-55
2023/04/27 05:00:37;;;;;;;3.08;1.60;;;;;;;19.96;48.87;101182.78;5053369;28;20045;-57
2023/04/27 05:03:06;;;;;;;4.93;1.95;;;;;;;19.96;48.63;101196.22;5057013;28;20048;-57
2023/04/27 05:05:34;;;;;;;3.10;1.65;;;;;;;19.95;48.69;101194.53;5057077;28;20048;-57
2023/04/27 05:08:01;;;;;;;3.92;1.60;;;;;;;19.95;48.73;101191.84;5056969;28;20045;-57
2023/04/27 05:10:28;;;;;;;2.80;1.77;;;;;;;19.95;48.67;101203.44;5056553;28;20463;-57
2023/04/27 05:12:56;;;;;;;3.78;1.92;;;;;;;19.95;48.57;101198.06;5056435;28;20399;-57
2023/04/27 05:15:23;;;;;;;5.93;2.03;;;;;;;19.95;48.63;101202.59;5056541;28;20048;-57
2023/04/27 05:17:50;;;;;;;4.03;1.70;;;;;;;19.94;48.46;101198.22;5056836;28;20493;-57
2023/04/27 05:20:18;;;;;;;2.85;1.38;;;;;;;19.94;48.44;101206.28;5056693;28;20040;-57
2023/04/27 05:22:45;;;;;;;3.42;1.75;;;;;;;19.94;48.51;101211.66;5056359;28;20048;-57
2023/04/27 05:25:12;;;;;;;3.03;1.63;;;;;;;19.94;48.60;101208.97;5056358;28;20049;-57
2023/04/27 05:27:40;;;;;;;2.45;1.45;;;;;;;19.93;48.34;101208.09;5056306;28;20053;-57
2023/04/27 05:30:07;;;;;;;3.20;1.50;;;;;;;19.93;48.25;101205.41;5055895;28;20041;-55
2023/04/27 05:32:36;;;;;;;4.97;1.90;;;;;;;19.93;48.29;101208.09;5056229;28;20049;-55
2023/04/27 05:35:04;;;;;;;2.35;1.50;;;;;;;19.93;48.32;101213.47;5056334;28;20053;-55
2023/04/27 05:37:31;;;;;;;3.95;1.30;;;;;;;19.94;48.29;101217.03;5056295;28;20115;-55
2023/04/27 05:39:58;;;;;;;4.25;1.90;;;;;;;19.93;48.39;101210.78;5056268;28;20041;-57
2023/04/27 05:42:26;;;;;;;3.25;1.90;;;;;;;19.93;48.25;101215.28;5056228;28;20045;-57
2023/04/27 05:44:53;;;;;;;3.60;1.63;;;;;;;19.92;48.34;101214.44;5056141;28;20053;-57
2023/04/27 05:47:21;;;;;;;3.30;1.75;;;;;;;19.93;48.35;101215.28;5056029;28;20045;-57
2023/04/27 05:49:50;;;;;;;2.53;1.30;;;;;;;19.92;48.28;101217.13;5055807;28;20040;-57
2023/04/27 05:52:21;;;;;;;4.85;2.08;;;;;;;19.93;48.46;101226.91;5056015;28;20049;-57
2023/04/27 05:54:49;;;;;;;3.45;1.73;;;;;;;19.92;48.45;101224.34;5055780;28;20049;-57
2023/04/27 05:57:16;;;;;;;3.85;2.15;;;;;;;19.92;48.42;101224.34;5056033;28;20052;-57
2023/04/27 05:59:44;;;;;;;3.70;1.75;;;;;;;19.92;48.83;101233.25;5055944;28;20060;-57
2023/04/27 06:02:11;;;;;;;3.33;1.40;;;;;;;19.92;48.42;101233.25;5055816;28;20049;-57
2023/04/27 06:04:38;;;;;;;5.13;2.10;;;;;;;19.93;48.47;101239.47;5055169;28;20411;-57
2023/04/27 06:07:10;;;;;;;5.20;1.90;;;;;;;19.93;48.47;101244.84;5055670;28;20045;-57
2023/04/27 06:09:38;;;;;;;3.53;1.52;;;;;;;19.93;48.58;101247.53;5055587;28;20036;-57
2023/04/27 06:12:06;;;;;;;3.15;1.77;;;;;;;19.92;48.49;101241.31;5054860;28;20061;-58
2023/04/27 06:14:35;;;;;;;3.67;1.85;;;;;;;19.92;48.53;101252.06;5055629;28;20052;-57
2023/04/27 06:17:03;;;;;;;3.28;1.30;;;;;;;19.92;48.50;101252.06;5055677;28;20514;-57
2023/04/27 06:19:30;;;;;;;3.60;1.70;;;;;;;19.93;48.49;101244.84;5055489;28;20099;-57
2023/04/27 06:21:57;;;;;;;3.50;1.63;;;;;;;19.92;48.78;101248.53;5055505;28;20055;-57
2023/04/27 06:24:25;;;;;;;3.13;1.33;;;;;;;19.92;48.84;101241.31;5055201;28;20049;-57
2023/04/27 06:26:53;;;;;;;4.57;2.10;;;;;;;19.92;48.77;101235.09;5055375;28;20391;-57
2023/04/27 06:29:20;;;;;;;3.42;1.98;;;;;;;19.93;48.73;101239.47;5055373;28;20044;-57
2023/04/27 06:31:48;;;;;;;3.42;1.70;;;;;;;19.93;48.75;101236.78;5055236;28;20056;-57
2023/04/27 06:34:15;;;;;;;2.78;1.38;;;;;;;19.92;48.66;101235.09;5055402;28;20078;-57
2023/04/27 06:36:43;;;;;;;3.33;1.77;;;;;;;19.92;48.76;101245.84;5055146;28;20045;-57
2023/04/27 06:39:11;;;;;;;6.18;1.80;;;;;;;19.92;48.49;101244.00;5054942;28;20048;-55
2023/04/27 06:41:38;;;;;;;2.47;1.70;;;;;;;19.93;48.74;101248.41;5055007;28;20053;-55
2023/04/27 06:44:17;;;;;;;4.25;1.73;;;;;;;19.93;48.64;101243.03;5054267;28;20057;-55
2023/04/27 06:46:44;;;;;;;4.18;1.90;;;;;;;19.93;48.75;101247.53;5054941;28;20053;-55
2023/04/27 06:49:12;;;;;;;3.67;1.92;;;;;;;19.94;48.90;101254.63;5055078;28;20060;-57
2023/04/27 06:51:40;;;;;;;4.95;1.80;;;;;;;19.93;48.96;101253.78;5054974;28;20056;-57
2023/04/27 06:54:07;;;;;;;2.80;1.52;;;;;;;19.94;48.91;101251.94;5054797;28;20384;-57
2023/04/27 06:56:34;;;;;;;4.25;1.77;;;;;;;19.93;49.19;101252.91;5054606;28;20632;-57
2023/04/27 06:59:01;;;;;;;4.43;1.67;;;;;;;19.93;49.02;101252.91;5054789;28;20051;-55
2023/04/27 07:01:29;;;;;;;4.10;1.67;;;;;;;19.95;49.54;101253.66;5054704;28;20410;-57
2023/04/27 07:03:56;;;;;;;6.03;1.55;;;;;;;19.96;49.78;101248.13;5052568;28;20045;-57
2023/04/27 07:06:24;;;;;;;4.28;2.28;;;;;;;19.99;49.45;101247.91;5053670;28;20045;-57
2023/04/27 07:08:52;;;;;;;5.88;2.53;;;;;;;20.01;49.22;101245.06;5053901;28;20041;-56
2023/04/27 07:11:19;;;;;;;3.55;2.00;;;;;;;20.03;48.93;101243.13;5054786;28;20455;-58
2023/04/27 07:13:46;;;;;;;5.68;2.30;;;;;;;20.04;49.01;101247.50;5068939;28;20048;-58
2023/04/27 07:16:15;;;;;;;3.90;1.92;;;;;;;20.06;49.25;101242.88;5074017;28;20041;-58
2023/04/27 07:18:43;;;;;;;4.75;1.95;;;;;;;20.07;49.41;101244.56;5073731;28;20425;-58
2023/04/27 07:21:10;;;;;;;5.55;1.98;;;;;;;20.09;49.82;101247.97;5062348;28;20475;-56
2023/04/27 07:23:40;;;;;;;5.13;1.85;;;;;;;20.11;50.34;101256.78;5067021;28;20044;-57
2023/04/27 07:26:08;;;;;;;3.30;2.00;;;;;;;20.13;50.24;101248.59;5073847;28;20122;-58
2023/04/27 07:28:35;;;;;;;5.15;2.40;;;;;;;20.15;49.91;101247.47;5073833;28;20055;-56
2023/04/27 07:31:04;;;;;;;4.03;1.85;;;;;;;20.15;50.74;101244.78;5074011;28;20045;-57
2023/04/27 07:33:32;;;;;;;5.15;2.47;;;;;;;20.16;49.72;101251.88;5073561;28;20486;-58
2023/04/27 07:36:01;;;;;;;5.20;2.80;;;;;;;20.18;50.17;101244.56;5073401;28;20056;-58
2023/04/27 07:38:30;;;;;;;3.10;2.17;;;;;;;20.20;50.33;101244.41;5072962;28;20048;-57
2023/04/27 07:41:00;;;;;;;4.78;2.40;;;;;;;20.22;49.84;101247.84;5073408;28;20044;-57
2023/04/27 07:43:28;;;;;;;4.70;2.22;;;;;;;20.22;49.68;101248.69;5073194;28;20048;-55
2023/04/27 07:45:57;;;;;;;9.05;2.30;;;;;;;20.22;49.83;101251.38;5073643;28;20044;-55
2023/04/27 07:48:24;;;;;;;5.47;2.20;;;;;;;20.24;49.96;101251.25;5073298;28;20620;-57
2023/04/27 07:50:52;;;;;;;5.20;2.70;;;;;;;20.24;49.80;101252.09;5073287;28;20471;-58
2023/04/27 07:53:20;;;;;;;5.75;2.00;;;;;;;20.27;50.74;101260.91;5073266;28;20532;-58
2023/04/27 07:55:47;;;;;;;4.75;2.45;;;;;;;20.26;49.84;101257.34;5073611;28;20048;-59
2023/04/27 07:58:14;;;;;;;6.90;3.42;;;;;;;20.24;49.82;101254.78;5073031;28;20115;-58
2023/04/27 08:00:42;;;;;;;6.63;2.88;;;;;;;20.24;49.61;101257.47;5059720;28;20049;-58
2023/04/27 08:03:09;;;;;;;7.78;2.30;;;;;;;20.23;49.72;101258.44;5053355;28;20052;-58
2023/04/27 08:05:37;;;;;;;4.25;2.58;;;;;;;20.23;49.88;101250.38;5053047;28;20048;-58
2023/04/27 08:08:05;;;;;;;4.28;2.20;;;;;;;20.24;50.45;101262.84;5052662;28;20454;-59
2023/04/27 08:10:32;;;;;;;5.28;2.65;;;;;;;20.25;50.14;101261.88;5052611;28;20399;-59
2023/04/27 08:12:59;;;;;;;4.85;2.78;;;;;;;20.27;50.34;101258.22;5052481;28;20063;-59
2023/04/27 08:15:26;;;;;;;7.15;2.60;;;;;;;20.29;50.13;101261.59;5053357;28;20056;-59
2023/04/27 08:17:54;;;;;;;5.45;2.80;;;;;;;20.28;49.96;101259.91;5052961;28;20487;-58
2023/04/27 08:20:21;;;;;;;6.15;2.97;;;;;;;20.29;49.82;101258.91;5052706;28;20494;-56
2023/04/27 08:22:50;;;;;;;6.55;2.75;;;;;;;20.28;49.88;101268.81;5052918;28;20048;-56
2023/04/27 08:25:17;;;;;;;8.82;3.35;;;;;;;20.28;49.66;101262.59;5053189;28;20053;-56
2023/04/27 08:27:44;;;;;;;7.82;3.10;;;;;;;20.27;49.69;101260.91;5052825;28;20041;-56
2023/04/27 08:30:12;;;;;;;6.15;3.25;;;;;;;20.25;49.58;101259.19;5052897;28;20049;-58
2023/04/27 08:32:39;;;;;;;5.28;3.08;;;;;;;20.26;49.57;101260.03;5052954;28;20495;-58
2023/04/27 08:35:07;;;;;;;5.32;3.15;;;;;;;20.25;49.85;101269.94;5053626;28;20048;-58
2023/04/27 08:37:34;;;;;;;4.93;3.13;;;;;;;20.26;49.69;101265.44;5057453;28;20052;-58
2023/04/27 08:40:06;;;;;;;4.90;2.88;;;;;;;20.25;49.68;101261.00;5057126;28;20041;-58
2023/04/27 08:42:34;;;;;;;5.57;3.10;;;;;;;20.24;49.77;101262.84;5056858;28;20045;-58
2023/04/27 08:45:03;;;;;;;5.55;2.90;;;;;;;20.25;49.60;101266.38;5056688;28;20064;-58
2023/04/27 08:47:30;;;;;;;4.57;2.40;;;;;;;20.25;49.57;101258.31;5056901;28;20045;-59
2023/04/27 08:50:10;;;;;;;7.45;2.78;;;;;;;20.25;49.82;101264.56;5056755;28;20056;-58
2023/04/27 08:52:37;;;;;;;3.10;2.20;;;;;;;20.24;49.71;101262.84;5056697;28;20053;-58
2023/04/27 08:55:07;;;;;;;6.25;3.10;;;;;;;20.25;49.82;101266.38;5056576;28;20045;-58
2023/04/27 08:57:34;;;;;;;4.07;2.20;;;;;;;20.25;49.83;101264.56;5056603;28;20049;-58
2023/04/27 09:00:10;;;;;;;4.25;2.60;;;;;;;20.25;49.82;101263.69;5056643;28;20060;-55
2023/04/27 09:02:47;;;;;;;4.65;2.30;;;;;;;20.27;49.83;101268.97;5056453;28;20049;-55
2023/04/27 09:05:19;;;;;;;4.47;2.25;;;;;;;20.25;49.90;101264.56;5056440;28;20056;-56
2023/04/27 09:08:07;;;;;;;3.97;2.25;;;;;;;20.25;49.83;101267.25;5056386;28;20056;-56
2023/04/27 09:10:45;;;;;;;5.78;2.50;;;;;;;20.25;49.94;101269.94;5056135;28;20037;-58
2023/04/27 09:13:12;;;;;;;6.20;2.50;;;;;;;20.25;49.94;101264.56;5056256;28;20059;-58
2023/04/27 09:15:42;;;;;;;3.58;2.13;;;;;;;20.26;50.05;101268.13;5056466;28;20399;-58
2023/04/27 09:18:16;;;;;;;4.40;2.47;;;;;;;20.26;49.90;101265.44;5056156;28;20404;-58
2023/04/27 09:20:45;;;;;;;4.00;2.30;;;;;;;20.25;49.89;101261.00;5056256;28;20041;-58
2023/04/27 09:23:28;;;;;;;4.57;2.28;;;;;;;20.26;49.95;101265.44;5056098;28;20047;-58
2023/04/27 09:25:57;;;;;;;4.30;1.87;;;;;;;20.26;49.98;101262.72;5055140;28;20049;-58
2023/04/27 09:28:29;;;;;;;5.63;2.50;;;;;;;20.26;50.02;101265.44;5055942;28;20270;-59
2023/04/27 09:30:58;;;;;;;4.30;2.25;;;;;;;20.25;50.00;101269.94;5055968;28;20045;-58
2023/04/27 09:33:31;;;;;;;4.15;1.60;;;;;;;20.25;49.79;101267.25;5055879;28;20052;-58
2023/04/27 09:36:00;;;;;;;4.18;2.10;;;;;;;20.25;50.00;101261.00;5055941;28;20053;-59
2023/04/27 09:38:29;;;;;;;3.50;1.80;;;;;;;20.25;49.89;101253.81;5055747;28;20411;-59
2023/04/27 09:40:58;;;;;;;5.05;1.65;;;;;;;20.26;49.86;101260.03;5055781;28;20045;-58
2023/04/27 09:43:27;;;;;;;3.55;1.85;;;;;;;20.26;50.09;101254.66;5055648;28;20047;-58
2023/04/27 09:45:55;;;;;;;4.28;1.95;;;;;;;20.26;50.19;101254.66;5055565;28;20064;-58
2023/04/27 09:48:25;;;;;;;3.58;2.30;;;;;;;20.25;50.13;101256.50;5054630;28;20056;-58
2023/04/27 09:50:52;;;;;;;3.97;1.98;;;;;;;20.27;50.16;101255.53;5055639;28;20476;-55
2023/04/27 09:53:32;;;;;;;3.80;2.05;;;;;;;20.27;50.13;101255.53;5055530;28;20045;-55
2023/04/27 09:56:33;;;;;;;2.97;1.73;;;;;;;20.27;50.10;101252.84;5055445;28;20052;-55
2023/04/27 09:59:20;;;;;;;4.05;1.90;;;;;;;20.27;50.26;101253.69;5055311;28;20041;-58
2023/04/27 10:01:54;;;;;;;3.97;1.58;;;;;;;20.27;50.06;101244.75;5055321;28;20052;-56
2023/04/27 10:04:52;;;;;;;3.63;1.60;;;;;;;20.28;50.15;101243.78;5054937;28;20063;-56
2023/04/27 10:07:20;;;;;;;4.32;2.00;;;;;;;20.28;50.31;101246.47;5055294;28;20510;-55
2023/04/27 10:09:50;;;;;;;3.15;1.75;;;;;;;20.28;50.25;101246.47;5055427;28;20044;-58
2023/04/27 10:12:26;;;;;;;3.47;1.70;;;;;;;20.28;50.22;101235.72;5054899;28;20062;-58
2023/04/27 10:14:59;;;;;;;4.90;1.77;;;;;;;20.28;50.32;101233.03;5055061;28;20415;-58
2023/04/27 10:17:31;;;;;;;2.63;1.40;;;;;;;20.28;50.12;101233.88;5055350;28;20049;-58
2023/04/27 10:20:03;;;;;;;3.35;1.80;;;;;;;20.28;50.20;101230.34;5055624;28;20077;-59
2023/04/27 10:22:42;;;;;;;3.63;1.67;;;;;;;20.30;50.22;101231.06;5054378;28;20045;-59
2023/04/27 10:25:15;;;;;;;4.90;1.60;;;;;;;20.30;50.34;101231.91;5055089;28;20301;-59
2023/04/27 10:27:47;;;;;;;4.13;2.05;;;;;;;20.32;50.04;101234.47;5072022;28;20048;-59
2023/04/27 10:30:17;;;;;;;2.60;1.40;;;;;;;20.32;50.30;101232.63;5075103;28;20486;-58
2023/04/27 10:32:56;;;;;;;3.55;1.77;;;;;;;20.33;50.27;101233.47;5074674;28;20037;-58
2023/04/27 10:35:35;;;;;;;3.78;2.08;;;;;;;20.32;50.24;101221.03;5073720;28;20557;-58
2023/04/27 10:38:07;;;;;;;5.10;1.98;;;;;;;20.33;50.20;101218.19;5054649;28;20048;-59
2023/04/27 10:40:36;;;;;;;3.93;1.90;;;;;;;20.34;50.22;101216.38;5054853;28;20059;-54
2023/04/27 10:43:15;;;;;;;2.92;1.17;;;;;;;20.34;50.37;101211.00;5054597;28;20364;-54
2023/04/27 10:45:43;;;;;;;2.75;1.38;;;;;;;20.35;50.42;101218.09;5054558;28;20049;-54
2023/04/27 10:48:14;;;;;;;3.10;1.80;;;;;;;20.34;50.30;101213.69;5054699;28;20056;-54
2023/04/27 10:50:45;;;;;;;2.70;1.60;;;;;;;20.34;50.46;101211.00;5054657;28;20049;-58
2023/04/27 10:53:14;;;;;;;3.10;1.20;;;;;;;20.35;50.29;101210.88;5054567;28;20480;-59
2023/04/27 10:55:41;;;;;;;2.20;1.38;;;;;;;20.35;50.42;101212.72;5054368;28;20053;-59
2023/04/27 10:58:09;;;;;;;2.42;1.40;;;;;;;20.35;50.45;101210.03;5054517;28;20514;-54
2023/04/27 11:00:42;;;;;;;2.70;1.45;;;;;;;20.35;50.44;101212.72;5054485;28;20045;-53
2023/04/27 11:03:22;;;;;;;2.70;1.25;;;;;;;20.35;50.54;101208.19;5054514;28;20049;-54
2023/04/27 11:06:02;;;;;;;3.25;1.77;;;;;;;20.36;50.35;101206.34;5054148;28;20060;-54
2023/04/27 11:08:31;;;;;;;2.78;1.90;;;;;;;20.36;50.38;101201.81;5054156;28;20422;-54
2023/04/27 11:10:58;;;;;;;3.92;1.58;;;;;;;20.38;50.23;101209.78;5053378;28;20419;-59
2023/04/27 11:13:27;;;;;;;4.78;1.65;;;;;;;20.38;50.23;101207.09;5033046;28;20057;-58
2023/04/27 11:15:58;;;;;;;3.92;1.60;;;;;;;20.38;50.18;101204.41;5034161;28;20435;-59
2023/04/27 11:18:28;;;;;;;4.57;1.55;;;;;;;20.38;50.18;101207.94;5073643;28;20077;-59
2023/04/27 11:21:13;;;;;;;3.20;1.52;;;;;;;20.39;50.23;101201.56;5074088;28;20044;-54
2023/04/27 11:23:41;;;;;;;2.53;1.25;;;;;;;20.38;50.14;101205.25;5073960;28;20056;-54
2023/04/27 11:26:24;;;;;;;5.57;1.45;;;;;;;20.40;50.11;101199.72;5073396;28;20115;-54
2023/04/27 11:29:08;;;;;;;5.10;1.42;;;;;;;20.40;50.32;101197.88;5073462;28;20488;-54
2023/04/27 11:31:47;;;;;;;2.55;1.10;;;;;;;20.41;50.11;101196.03;5072826;28;20051;-52
2023/04/27 11:34:23;;;;;;;1.98;0.98;;;;;;;20.43;50.26;101202.16;5073638;28;20049;-55